Date,TemperatureHighF,TemperatureAvgF,TemperatureLowF,DewpointHighF,DewpointAvgF,DewpointLowF,HumidityHigh,HumidityAvg,HumidityLow,PressureMaxIn,PressureMinIn,WindSpeedMaxMPH,WindSpeedAvgMPH,GustSpeedMaxMPH,PrecipitationSumIn
2013-11-1,72,63,52,63,56,50,98,82,49,29.92,29.80,4,0,11,0.00
2013-11-2,67,58,50,52,48,43,97,71,42,30.16,29.91,6,1,16,0.00
2013-11-3,64,52,43,48,44,40,95,75,50,30.24,30.10,4,0,12,0.00
2013-11-4,70,56,44,58,51,43,96,83,61,30.25,30.13,2,0,7,0.00
2013-11-5,73,63,58,62,58,54,96,83,67,30.21,30.08,4,0,13,0.00
2013-11-6,78,66,55,71,63,54,98,92,74,30.11,30.00,6,0,13,0.18
2013-11-7,64,52,44,63,46,39,100,80,49,30.33,30.08,8,3,16,0.01
2013-11-8,61,51,41,44,40,36,86,68,45,30.35,30.19,7,1,15,0.00
2013-11-9,68,56,45,55,48,40,87,74,58,30.24,30.15,2,0,6,0.00
2013-11-10,70,59,52,56,51,47,92,75,43,30.27,30.17,3,0,9,0.00
2013-11-11,74,60,51,54,50,46,89,71,45,30.24,30.12,1,0,5,0.00
2013-11-12,65,50,36,54,43,29,86,79,67,30.50,30.17,9,3,22,0.00
2013-11-13,53,40,31,32,26,22,79,60,34,30.55,30.41,7,2,15,0.00
2013-11-14,62,48,32,47,38,25,80,68,55,30.41,30.13,2,0,8,0.00
2013-11-15,67,58,51,62,55,46,98,91,75,30.14,29.97,2,0,8,0.48
2013-11-16,75,67,60,69,65,60,99,93,80,30.03,29.91,3,0,9,0.01
2013-11-17,78,72,68,74,71,67,99,96,86,29.93,29.81,2,0,12,0.02
2013-11-18,76,66,55,72,48,35,99,55,29,30.10,29.92,9,2,25,0.01
2013-11-19,61,52,42,41,34,27,76,53,27,30.16,30.05,6,2,17,0.00
2013-11-20,70,53,40,49,40,32,92,64,36,30.11,30.01,2,0,9,0.00
2013-11-21,66,60,51,64,59,49,98,95,90,30.19,30.09,3,0,10,0.00
2013-11-22,70,65,62,66,64,62,99,97,86,30.26,30.12,5,0,11,0.20
2013-11-23,62,52,42,62,51,38,99,96,86,30.36,30.16,7,2,17,0.09
2013-11-24,48,40,34,36,28,25,82,64,44,30.42,30.30,8,3,21,0.00
2013-11-25,44,42,37,44,38,25,98,87,62,30.31,29.91,5,1,13,0.71
2013-11-26,47,42,37,47,41,36,100,97,95,30.07,29.75,8,3,19,1.15
2013-11-27,43,36,26,36,28,24,95,76,47,30.41,30.06,9,2,18,0.00
2013-11-28,46,34,25,34,26,22,92,76,44,30.49,30.38,2,0,10,0.00
2013-11-29,59,42,28,34,29,26,93,63,32,30.54,30.41,4,0,8,0.00
2013-11-30,66,47,32,38,32,28,86,60,28,30.44,30.24,1,0,3,0.00